Rowena, Missouri
Current Conditions -  °F | °C
As of 2:54 AM on Monday 24 Nov 2014 (Local Time) from KCOU Reporting Station
Overcast Overcast  
Wind Chill: 28°   Ceiling: 700
Heat Index: 36°   Visibility: 10mi
Dew Point: 35°   Wind: 12mph
Humidity: 97%   Direction: 280°W
Pressure: 29.45"   Gusts: NA
Location:  39.2043°N, 92.1568°W
Report Text: KCOU 240854Z AUTO 28010KT 10SM OVC007 02/02 A2945 RMK AO2 PK WND 31026/0806 RAE48 SLP974 P0003 60020 T00220017 53043 $
Loading
Personal Weather Stations






























Interactive Weather Map New forecast layout! Learn more

10-Day Weather Forecast

Advertisements
Track Severe Weather on mobile